Pagina principală
METAR-TAF:

METAR-TAF

Aeroporturi :

Iwo Jima, Japonia

Latitudine: 24-47N, longitudine: 141-19E, elevație: 113 m

Observații meteo curente

Raportul a fost făcut în urmă cu 3 ore și 11 de minute, la 00:00 UTC
Vânt 11 kt de la Sud
Temperatură 24°C
Umiditate 100%
Presiune 1009 hPa
Vizibilitate de 10 km sau mai mult
Nori puțini la o înălțime de 1000 picior
Nori fragmentați la o înălțime de 2000 picior
Nori fragmentați la o înălțime de 8000 picior
averse de ploaie slabă

METAR: RJAW 100000Z 19011KT 9999 -SHRA FEW010 BKN020 BKN080 24/24 Q1009 RMK 2CU010 5CU020 7AC080 A2981 WIND BY EQPT/25

Ora: 12:11 (03:11 UTC)


TAF: lipsă

Observații și prognoze meteo pentru peste 4.000 de aeroporturi (rapoarte METAR și TAF).

Stațiile disponibile sunt reprezentate pe hartă prin puncte galbene și roșii.

Țineți indicatorul mouse-ului pe punctul dorit pentru a vedea denumirea stației.

Apoi, faceți clic pentru a vedea observațiile și prognozele meteorologice.

Pentru a schimba harta: Pentru mărire, faceți clic pe butoanele verzi cu cruce neagră; pentru micșorare, pe butonul verde cu o liniuță; pentru hărți învecinate, pe săgețile verzi.


METAR-TAF: